Flight Track Log - Related Links

Times and Time Zones

All times are in EDT time to prevent confusion due to time zone crossing. See the UAL5911 flight status page for this flight to view local times or setup timezone preferences in your user account.

Time Position Orientation Groundspeed Altitude Reporting Facility
EDT Latitude Longitude Course Direction KTS MPH feet Rate Location/Type
Mon 02:27:06 PM 41.9667 -87.9500 270° West 182 209 2,300  Level Chicago TRACON
Mon 02:28:00 PM 41.9500 -88.0000 246° West 204 235 4,300 1,038 Climbing Chicago TRACON
Mon 02:29:00 PM 41.9667 -88.2306 270° West  Level FlightAware Approximate
Mon 02:29:42 PM 41.9144 -88.1419 251° West 242 278 5,000  Level Chicago Center
Mon 02:30:00 PM 41.9667 -88.3407 270° West  Level FlightAware Approximate
Mon 02:30:44 PM 41.9336 -88.2297 286° West 258 297 6,300  Level Chicago Center
Mon 02:31:00 PM 41.9667 -88.4509 270° West  Level FlightAware Approximate
Mon 02:31:46 PM 41.9544 -88.3189 287° West 262 302 8,700  Level Chicago Center
Mon 02:32:00 PM 41.9667 -88.5611 270° West  Level FlightAware Approximate
Mon 02:32:48 PM 41.9528 -88.4142 269° West 262 302 11,000  Level Chicago Center
Mon 02:33:51 PM 41.9106 -88.5072 239° Southwest 297 342 11,000  Level Chicago Center
Mon 02:34:53 PM 41.8636 -88.6356 244° Southwest 320 368 11,000 -387 Level Chicago Center
Mon 02:35:55 PM 41.8239 -88.7400 243° Southwest 319 367 10,200 -484 Descending Chicago Center
Mon 02:36:57 PM 41.7867 -88.8442 244° Southwest 314 361 10,000 -97 Descending Chicago Center
Mon 02:37:59 PM 41.7486 -88.9461 243° Southwest 311 358 10,000  Level Chicago Center
Mon 02:39:01 PM 41.7075 -89.0631 245° Southwest 295 339 10,000  Level Chicago Center
Mon 02:40:03 PM 41.6717 -89.1603 244° Southwest 294 338 10,000  Level Chicago Center
Mon 02:41:05 PM 41.6019 -89.2225 214° Southwest 320 368 10,000  Level Chicago Center
Mon 02:42:08 PM 41.5081 -89.2614 197° South 323 372 10,000  Level Chicago Center
Mon 02:43:10 PM 41.4297 -89.2914 196° South 300 345 10,000  Level Chicago Center
Mon 02:44:12 PM 41.3567 -89.3208 197° South 278 320 10,000 -97 Level Chicago Center
Mon 02:45:14 PM 41.2842 -89.3278 184° South 265 305 9,800 -726 Descending Chicago Center
Mon 02:46:16 PM 41.2167 -89.3217 176° South 246 283 8,500 -1,355 Descending Chicago Center
Mon 02:47:18 PM 41.1481 -89.3178 178° South 246 283 7,000 -1,597 Descending Chicago Center
Mon 02:48:20 PM 41.0700 -89.3156 179° South 237 273 5,200 -1,452 Descending Chicago Center
Mon 02:49:22 PM 41.0064 -89.3133 178° South 231 266 4,000 -581 Descending Chicago Center
Mon 02:50:24 PM 40.9486 -89.3381 198° South 236 272 4,000  Level Chicago Center
Mon 02:51:27 PM 40.8981 -89.3900 218° Southwest 232 267 4,000 -339 Level Chicago Center
Mon 02:52:28 PM 40.8497 -89.4386 217° Southwest 227 261 3,300 -780 Descending Chicago Center
Mon 02:53:30 PM 40.8058 -89.4828 217° Southwest 213 245 2,400 -435 Descending Chicago Center
Mon 02:54:32 PM 40.7608 -89.5286 218° Southwest 206 237 2,400  Level Chicago Center
Mon 02:55:35 PM 40.6986 -89.5600 201° Southwest 198 228 2,400  Level Chicago Center

Login

Don't have an account? Register now (free) for customized features, flight alerts, and more!